sensor_id;sensor_type;location;lat;lon;timestamp;temperature;humidity
50969;DHT22;36982;51.474;7.228;2023-06-19T00:00:28;23.80;99.90
50969;DHT22;36982;51.474;7.228;2023-06-19T00:02:56;23.70;99.90
50969;DHT22;36982;51.474;7.228;2023-06-19T00:05:21;23.70;99.90
50969;DHT22;36982;51.474;7.228;2023-06-19T00:07:48;23.70;99.90
50969;DHT22;36982;51.474;7.228;2023-06-19T00:10:14;23.70;99.90
50969;DHT22;36982;51.474;7.228;2023-06-19T00:12:39;23.60;99.90
50969;DHT22;36982;51.474;7.228;2023-06-19T00:15:05;23.50;99.90
50969;DHT22;36982;51.474;7.228;2023-06-19T00:17:32;23.60;99.90
50969;DHT22;36982;51.474;7.228;2023-06-19T00:19:58;23.60;99.90
50969;DHT22;36982;51.474;7.228;2023-06-19T00:22:25;23.50;99.90
50969;DHT22;36982;51.474;7.228;2023-06-19T00:24:51;23.50;99.90
50969;DHT22;36982;51.474;7.228;2023-06-19T00:27:17;23.40;99.90
50969;DHT22;36982;51.474;7.228;2023-06-19T00:29:43;23.30;99.90
50969;DHT22;36982;51.474;7.228;2023-06-19T00:32:09;23.20;99.90
50969;DHT22;36982;51.474;7.228;2023-06-19T00:34:35;23.00;99.90
50969;DHT22;36982;51.474;7.228;2023-06-19T00:37:02;22.80;99.90
50969;DHT22;36982;51.474;7.228;2023-06-19T00:39:28;22.70;99.90
50969;DHT22;36982;51.474;7.228;2023-06-19T00:41:55;22.80;99.90
50969;DHT22;36982;51.474;7.228;2023-06-19T00:44:21;22.80;99.90
50969;DHT22;36982;51.474;7.228;2023-06-19T00:46:51;22.80;99.90
50969;DHT22;36982;51.474;7.228;2023-06-19T00:49:20;22.80;99.90
50969;DHT22;36982;51.474;7.228;2023-06-19T00:51:46;22.80;99.90
50969;DHT22;36982;51.474;7.228;2023-06-19T00:54:11;22.90;99.90
50969;DHT22;36982;51.474;7.228;2023-06-19T00:56:37;22.90;99.90
50969;DHT22;36982;51.474;7.228;2023-06-19T00:59:08;22.70;99.90
50969;DHT22;36982;51.474;7.228;2023-06-19T01:01:36;22.70;99.90
50969;DHT22;36982;51.474;7.228;2023-06-19T01:04:02;22.60;99.90
50969;DHT22;36982;51.474;7.228;2023-06-19T01:06:32;22.50;99.90
50969;DHT22;36982;51.474;7.228;2023-06-19T01:09:07;22.50;99.90
50969;DHT22;36982;51.474;7.228;2023-06-19T01:11:38;22.50;99.90
50969;DHT22;36982;51.474;7.228;2023-06-19T01:14:31;22.50;99.90
50969;DHT22;36982;51.474;7.228;2023-06-19T01:16:59;22.40;99.90
50969;DHT22;36982;51.474;7.228;2023-06-19T01:19:25;22.50;99.90
50969;DHT22;36982;51.474;7.228;2023-06-19T01:21:51;22.50;99.90
50969;DHT22;36982;51.474;7.228;2023-06-19T01:24:42;22.40;99.90
50969;DHT22;36982;51.474;7.228;2023-06-19T01:27:07;22.40;99.90
50969;DHT22;36982;51.474;7.228;2023-06-19T01:29:33;22.30;99.90
50969;DHT22;36982;51.474;7.228;2023-06-19T01:32:04;22.40;99.90
50969;DHT22;36982;51.474;7.228;2023-06-19T01:34:30;22.50;99.90
50969;DHT22;36982;51.474;7.228;2023-06-19T01:36:57;22.50;99.90
50969;DHT22;36982;51.474;7.228;2023-06-19T01:39:24;22.40;99.90
50969;DHT22;36982;51.474;7.228;2023-06-19T01:41:51;22.50;99.90
50969;DHT22;36982;51.474;7.228;2023-06-19T01:44:18;22.40;99.90
50969;DHT22;36982;51.474;7.228;2023-06-19T01:46:47;22.30;99.90
50969;DHT22;36982;51.474;7.228;2023-06-19T01:49:13;22.30;99.90
50969;DHT22;36982;51.474;7.228;2023-06-19T01:51:39;22.30;99.90
50969;DHT22;36982;51.474;7.228;2023-06-19T01:54:04;22.20;99.90
50969;DHT22;36982;51.474;7.228;2023-06-19T01:56:30;22.20;99.90
50969;DHT22;36982;51.474;7.228;2023-06-19T01:58:56;22.20;99.90
50969;DHT22;36982;51.474;7.228;2023-06-19T02:01:21;22.10;99.90
50969;DHT22;36982;51.474;7.228;2023-06-19T02:03:47;22.10;99.90
50969;DHT22;36982;51.474;7.228;2023-06-19T02:06:12;22.00;99.90
50969;DHT22;36982;51.474;7.228;2023-06-19T02:08:38;21.90;99.90
50969;DHT22;36982;51.474;7.228;2023-06-19T02:11:03;21.90;1.00
50969;DHT22;36982;51.474;7.228;2023-06-19T02:13:29;22.00;99.90
50969;DHT22;36982;51.474;7.228;2023-06-19T02:15:55;22.00;99.90
50969;DHT22;36982;51.474;7.228;2023-06-19T02:18:20;22.00;99.90
50969;DHT22;36982;51.474;7.228;2023-06-19T02:20:46;22.00;99.90
50969;DHT22;36982;51.474;7.228;2023-06-19T02:23:11;22.00;99.90
50969;DHT22;36982;51.474;7.228;2023-06-19T02:25:37;22.00;99.90
50969;DHT22;36982;51.474;7.228;2023-06-19T02:28:02;22.00;99.90
50969;DHT22;36982;51.474;7.228;2023-06-19T02:30:29;22.10;99.90
50969;DHT22;36982;51.474;7.228;2023-06-19T02:32:54;22.20;99.90
50969;DHT22;36982;51.474;7.228;2023-06-19T02:35:20;22.20;99.90
50969;DHT22;36982;51.474;7.228;2023-06-19T02:37:46;22.20;99.90
50969;DHT22;36982;51.474;7.228;2023-06-19T02:40:14;22.30;99.90
50969;DHT22;36982;51.474;7.228;2023-06-19T02:42:40;22.30;99.90
50969;DHT22;36982;51.474;7.228;2023-06-19T02:45:06;22.40;99.90
50969;DHT22;36982;51.474;7.228;2023-06-19T02:47:32;22.50;99.90
50969;DHT22;36982;51.474;7.228;2023-06-19T02:50:02;22.50;99.90
50969;DHT22;36982;51.474;7.228;2023-06-19T02:52:30;22.60;99.90
50969;DHT22;36982;51.474;7.228;2023-06-19T02:54:55;22.50;99.90
50969;DHT22;36982;51.474;7.228;2023-06-19T02:57:21;22.60;99.90
50969;DHT22;36982;51.474;7.228;2023-06-19T02:59:47;22.60;99.90
50969;DHT22;36982;51.474;7.228;2023-06-19T03:02:12;22.60;99.90
50969;DHT22;36982;51.474;7.228;2023-06-19T03:04:40;22.60;99.90
50969;DHT22;36982;51.474;7.228;2023-06-19T03:07:06;22.60;99.90
50969;DHT22;36982;51.474;7.228;2023-06-19T03:09:32;22.60;99.90
50969;DHT22;36982;51.474;7.228;2023-06-19T03:11:57;22.50;99.90
50969;DHT22;36982;51.474;7.228;2023-06-19T03:14:23;22.50;99.90
50969;DHT22;36982;51.474;7.228;2023-06-19T03:16:48;22.50;99.90
50969;DHT22;36982;51.474;7.228;2023-06-19T03:19:14;22.70;99.90
50969;DHT22;36982;51.474;7.228;2023-06-19T03:21:40;22.60;99.90
50969;DHT22;36982;51.474;7.228;2023-06-19T03:24:05;22.60;99.90
50969;DHT22;36982;51.474;7.228;2023-06-19T03:26:31;22.50;99.90
50969;DHT22;36982;51.474;7.228;2023-06-19T03:28:57;22.50;99.90
50969;DHT22;36982;51.474;7.228;2023-06-19T03:31:22;22.50;99.90
50969;DHT22;36982;51.474;7.228;2023-06-19T03:33:48;22.40;99.90
50969;DHT22;36982;51.474;7.228;2023-06-19T03:36:14;22.40;99.90
50969;DHT22;36982;51.474;7.228;2023-06-19T03:38:39;22.40;99.90
50969;DHT22;36982;51.474;7.228;2023-06-19T03:41:05;22.30;1.00
50969;DHT22;36982;51.474;7.228;2023-06-19T03:43:30;22.20;1.00
50969;DHT22;36982;51.474;7.228;2023-06-19T03:45:56;22.20;1.00
50969;DHT22;36982;51.474;7.228;2023-06-19T03:48:22;22.10;1.00
50969;DHT22;36982;51.474;7.228;2023-06-19T03:50:47;22.20;39.50
50969;DHT22;36982;51.474;7.228;2023-06-19T03:53:13;22.00;96.00
50969;DHT22;36982;51.474;7.228;2023-06-19T03:55:39;22.00;99.90
50969;DHT22;36982;51.474;7.228;2023-06-19T03:58:04;21.90;99.90
50969;DHT22;36982;51.474;7.228;2023-06-19T04:00:31;21.90;99.90
50969;DHT22;36982;51.474;7.228;2023-06-19T04:02:57;21.80;99.90
50969;DHT22;36982;51.474;7.228;2023-06-19T04:05:23;21.90;99.90
50969;DHT22;36982;51.474;7.228;2023-06-19T04:07:48;21.80;1.00
50969;DHT22;36982;51.474;7.228;2023-06-19T04:10:14;21.60;1.00
50969;DHT22;36982;51.474;7.228;2023-06-19T04:12:40;21.70;99.90
50969;DHT22;36982;51.474;7.228;2023-06-19T04:15:07;21.50;99.90
50969;DHT22;36982;51.474;7.228;2023-06-19T04:17:32;21.70;99.90
50969;DHT22;36982;51.474;7.228;2023-06-19T04:19:58;21.70;99.90
50969;DHT22;36982;51.474;7.228;2023-06-19T04:22:24;21.70;99.90
50969;DHT22;36982;51.474;7.228;2023-06-19T04:24:49;21.60;99.90
50969;DHT22;36982;51.474;7.228;2023-06-19T04:27:15;21.50;1.00
50969;DHT22;36982;51.474;7.228;2023-06-19T04:29:41;21.50;1.00
50969;DHT22;36982;51.474;7.228;2023-06-19T04:32:06;21.50;39.80
50969;DHT22;36982;51.474;7.228;2023-06-19T04:34:38;21.40;99.90
50969;DHT22;36982;51.474;7.228;2023-06-19T04:37:04;21.40;99.90
50969;DHT22;36982;51.474;7.228;2023-06-19T04:39:30;21.50;99.90
50969;DHT22;36982;51.474;7.228;2023-06-19T04:41:55;21.50;99.90
50969;DHT22;36982;51.474;7.228;2023-06-19T04:44:21;21.50;99.90
50969;DHT22;36982;51.474;7.228;2023-06-19T04:46:47;21.50;99.90
50969;DHT22;36982;51.474;7.228;2023-06-19T04:49:13;21.50;1.00
50969;DHT22;36982;51.474;7.228;2023-06-19T04:51:40;21.40;51.00
50969;DHT22;36982;51.474;7.228;2023-06-19T04:54:06;21.40;99.90
50969;DHT22;36982;51.474;7.228;2023-06-19T04:56:32;21.40;99.90
50969;DHT22;36982;51.474;7.228;2023-06-19T04:58:57;21.30;99.90
50969;DHT22;36982;51.474;7.228;2023-06-19T05:01:27;21.40;1.00
50969;DHT22;36982;51.474;7.228;2023-06-19T05:03:56;21.40;95.30
50969;DHT22;36982;51.474;7.228;2023-06-19T05:06:25;21.10;99.90
50969;DHT22;36982;51.474;7.228;2023-06-19T05:08:51;21.20;99.90
50969;DHT22;36982;51.474;7.228;2023-06-19T05:11:17;21.30;99.90
50969;DHT22;36982;51.474;7.228;2023-06-19T05:13:43;21.60;1.00
50969;DHT22;36982;51.474;7.228;2023-06-19T05:16:08;21.70;99.90
50969;DHT22;36982;51.474;7.228;2023-06-19T05:18:34;21.90;99.90
50969;DHT22;36982;51.474;7.228;2023-06-19T05:21:00;22.30;1.00
50969;DHT22;36982;51.474;7.228;2023-06-19T05:23:25;22.50;31.50
50969;DHT22;36982;51.474;7.228;2023-06-19T05:25:51;22.60;1.00
50969;DHT22;36982;51.474;7.228;2023-06-19T05:28:16;22.30;1.00
50969;DHT22;36982;51.474;7.228;2023-06-19T05:30:42;22.20;99.90
50969;DHT22;36982;51.474;7.228;2023-06-19T05:33:08;22.20;99.90
50969;DHT22;36982;51.474;7.228;2023-06-19T05:35:33;22.10;99.90
50969;DHT22;36982;51.474;7.228;2023-06-19T05:37:59;22.30;99.90
50969;DHT22;36982;51.474;7.228;2023-06-19T05:40:29;22.40;99.90
50969;DHT22;36982;51.474;7.228;2023-06-19T05:42:54;22.70;1.00
50969;DHT22;36982;51.474;7.228;2023-06-19T05:45:21;22.80;99.90
50969;DHT22;36982;51.474;7.228;2023-06-19T05:47:46;22.80;99.90
50969;DHT22;36982;51.474;7.228;2023-06-19T05:50:12;22.80;99.90
50969;DHT22;36982;51.474;7.228;2023-06-19T05:52:38;22.90;99.90
50969;DHT22;36982;51.474;7.228;2023-06-19T05:55:08;22.60;99.90
50969;DHT22;36982;51.474;7.228;2023-06-19T05:57:35;22.70;1.00
50969;DHT22;36982;51.474;7.228;2023-06-19T06:00:00;22.60;1.00
50969;DHT22;36982;51.474;7.228;2023-06-19T06:02:26;22.40;99.90
50969;DHT22;36982;51.474;7.228;2023-06-19T06:04:53;22.40;1.00
50969;DHT22;36982;51.474;7.228;2023-06-19T06:07:19;22.50;99.90
50969;DHT22;36982;51.474;7.228;2023-06-19T06:09:44;22.20;99.90
50969;DHT22;36982;51.474;7.228;2023-06-19T06:12:10;22.30;99.90
50969;DHT22;36982;51.474;7.228;2023-06-19T06:14:37;22.20;1.00
50969;DHT22;36982;51.474;7.228;2023-06-19T06:17:02;22.10;1.00
50969;DHT22;36982;51.474;7.228;2023-06-19T06:19:30;22.10;1.00
50969;DHT22;36982;51.474;7.228;2023-06-19T06:21:56;22.10;12.50
50969;DHT22;36982;51.474;7.228;2023-06-19T06:24:21;22.20;99.90
50969;DHT22;36982;51.474;7.228;2023-06-19T06:26:47;22.30;1.00
50969;DHT22;36982;51.474;7.228;2023-06-19T06:29:13;22.20;1.00
50969;DHT22;36982;51.474;7.228;2023-06-19T06:31:38;22.20;1.00
50969;DHT22;36982;51.474;7.228;2023-06-19T06:34:05;22.30;99.90
50969;DHT22;36982;51.474;7.228;2023-06-19T06:36:30;22.20;1.00
50969;DHT22;36982;51.474;7.228;2023-06-19T06:38:56;22.30;64.90
50969;DHT22;36982;51.474;7.228;2023-06-19T06:41:21;22.20;99.90
50969;DHT22;36982;51.474;7.228;2023-06-19T06:43:47;22.20;54.10
50969;DHT22;36982;51.474;7.228;2023-06-19T06:46:13;22.40;17.50
50969;DHT22;36982;51.474;7.228;2023-06-19T06:48:39;22.90;4.30
50969;DHT22;36982;51.474;7.228;2023-06-19T06:51:05;23.20;99.90
50969;DHT22;36982;51.474;7.228;2023-06-19T06:53:31;23.50;99.90
50969;DHT22;36982;51.474;7.228;2023-06-19T06:55:59;23.40;99.90
50969;DHT22;36982;51.474;7.228;2023-06-19T06:58:26;23.70;99.90
50969;DHT22;36982;51.474;7.228;2023-06-19T07:00:51;23.90;68.90
50969;DHT22;36982;51.474;7.228;2023-06-19T07:03:17;24.00;16.70
50969;DHT22;36982;51.474;7.228;2023-06-19T07:05:47;23.80;30.00
50969;DHT22;36982;51.474;7.228;2023-06-19T07:08:13;23.80;20.30
50969;DHT22;36982;51.474;7.228;2023-06-19T07:10:38;23.70;28.20
50969;DHT22;36982;51.474;7.228;2023-06-19T07:13:04;23.70;11.80
50969;DHT22;36982;51.474;7.228;2023-06-19T07:15:30;23.30;71.60
50969;DHT22;36982;51.474;7.228;2023-06-19T07:17:56;23.00;99.90
50969;DHT22;36982;51.474;7.228;2023-06-19T07:20:21;22.70;99.90
50969;DHT22;36982;51.474;7.228;2023-06-19T07:22:49;22.40;99.90
50969;DHT22;36982;51.474;7.228;2023-06-19T07:25:15;22.40;1.00
50969;DHT22;36982;51.474;7.228;2023-06-19T07:27:41;22.40;99.90
50969;DHT22;36982;51.474;7.228;2023-06-19T07:30:07;22.30;24.50
50969;DHT22;36982;51.474;7.228;2023-06-19T07:32:33;22.40;1.00
50969;DHT22;36982;51.474;7.228;2023-06-19T07:34:58;22.40;99.90
50969;DHT22;36982;51.474;7.228;2023-06-19T07:37:24;22.30;1.00
50969;DHT22;36982;51.474;7.228;2023-06-19T07:39:50;22.20;99.90
50969;DHT22;36982;51.474;7.228;2023-06-19T07:42:17;22.10;99.90
50969;DHT22;36982;51.474;7.228;2023-06-19T07:44:44;22.10;71.20
50969;DHT22;36982;51.474;7.228;2023-06-19T07:47:10;22.20;1.00
50969;DHT22;36982;51.474;7.228;2023-06-19T07:49:36;22.10;99.90
50969;DHT22;36982;51.474;7.228;2023-06-19T07:52:02;22.20;99.90
50969;DHT22;36982;51.474;7.228;2023-06-19T07:54:28;22.30;99.90
50969;DHT22;36982;51.474;7.228;2023-06-19T07:56:54;22.50;99.90
50969;DHT22;36982;51.474;7.228;2023-06-19T07:59:19;22.60;99.90
50969;DHT22;36982;51.474;7.228;2023-06-19T08:01:45;22.40;15.80
50969;DHT22;36982;51.474;7.228;2023-06-19T08:04:11;22.20;99.90
50969;DHT22;36982;51.474;7.228;2023-06-19T08:06:36;22.00;99.90
50969;DHT22;36982;51.474;7.228;2023-06-19T08:09:02;21.90;99.90
50969;DHT22;36982;51.474;7.228;2023-06-19T08:11:28;21.80;99.90
50969;DHT22;36982;51.474;7.228;2023-06-19T08:13:54;22.00;99.90
50969;DHT22;36982;51.474;7.228;2023-06-19T08:16:19;22.30;99.90
50969;DHT22;36982;51.474;7.228;2023-06-19T08:18:45;22.50;99.90
50969;DHT22;36982;51.474;7.228;2023-06-19T08:21:12;22.60;99.90
50969;DHT22;36982;51.474;7.228;2023-06-19T08:23:38;22.40;66.80
50969;DHT22;36982;51.474;7.228;2023-06-19T08:26:05;22.60;99.90
50969;DHT22;36982;51.474;7.228;2023-06-19T08:28:32;22.80;49.80
50969;DHT22;36982;51.474;7.228;2023-06-19T08:30:58;23.00;99.90
50969;DHT22;36982;51.474;7.228;2023-06-19T08:33:23;23.10;99.90
50969;DHT22;36982;51.474;7.228;2023-06-19T08:35:49;23.30;99.90
50969;DHT22;36982;51.474;7.228;2023-06-19T08:38:15;23.50;2.40
50969;DHT22;36982;51.474;7.228;2023-06-19T08:40:44;23.60;99.90
50969;DHT22;36982;51.474;7.228;2023-06-19T08:43:09;23.50;99.90
50969;DHT22;36982;51.474;7.228;2023-06-19T08:45:35;23.40;1.00
50969;DHT22;36982;51.474;7.228;2023-06-19T08:48:02;23.50;1.00
50969;DHT22;36982;51.474;7.228;2023-06-19T08:50:31;23.50;1.00
50969;DHT22;36982;51.474;7.228;2023-06-19T08:52:57;23.30;1.00
50969;DHT22;36982;51.474;7.228;2023-06-19T08:55:23;23.20;99.90
50969;DHT22;36982;51.474;7.228;2023-06-19T08:57:49;22.90;99.90
50969;DHT22;36982;51.474;7.228;2023-06-19T09:00:27;22.40;99.90
50969;DHT22;36982;51.474;7.228;2023-06-19T09:03:00;22.30;88.00
50969;DHT22;36982;51.474;7.228;2023-06-19T09:05:26;22.30;1.00
50969;DHT22;36982;51.474;7.228;2023-06-19T09:07:57;22.40;99.90
50969;DHT22;36982;51.474;7.228;2023-06-19T09:10:23;22.80;1.00
50969;DHT22;36982;51.474;7.228;2023-06-19T09:13:03;22.80;99.90
50969;DHT22;36982;51.474;7.228;2023-06-19T09:15:35;23.00;1.00
50969;DHT22;36982;51.474;7.228;2023-06-19T09:18:05;23.30;99.90
50969;DHT22;36982;51.474;7.228;2023-06-19T09:20:33;23.60;99.90
50969;DHT22;36982;51.474;7.228;2023-06-19T09:22:59;23.70;99.90
50969;DHT22;36982;51.474;7.228;2023-06-19T09:25:25;23.90;99.90
50969;DHT22;36982;51.474;7.228;2023-06-19T09:27:56;24.30;99.90
50969;DHT22;36982;51.474;7.228;2023-06-19T09:30:22;24.30;99.90
50969;DHT22;36982;51.474;7.228;2023-06-19T09:32:48;24.60;99.90
50969;DHT22;36982;51.474;7.228;2023-06-19T09:35:14;24.60;60.70
50969;DHT22;36982;51.474;7.228;2023-06-19T09:37:40;24.40;53.00
50969;DHT22;36982;51.474;7.228;2023-06-19T09:40:07;24.40;40.20
50969;DHT22;36982;51.474;7.228;2023-06-19T09:42:40;24.50;31.50
50969;DHT22;36982;51.474;7.228;2023-06-19T09:45:08;24.60;12.10
50969;DHT22;36982;51.474;7.228;2023-06-19T09:47:38;24.70;21.30
50969;DHT22;36982;51.474;7.228;2023-06-19T09:50:05;24.90;1.00
50969;DHT22;36982;51.474;7.228;2023-06-19T09:52:32;25.10;1.00
50969;DHT22;36982;51.474;7.228;2023-06-19T09:55:01;25.10;1.00
50969;DHT22;36982;51.474;7.228;2023-06-19T09:57:28;24.90;1.00
50969;DHT22;36982;51.474;7.228;2023-06-19T09:59:56;24.80;99.90
50969;DHT22;36982;51.474;7.228;2023-06-19T10:02:24;24.90;99.90
50969;DHT22;36982;51.474;7.228;2023-06-19T10:04:52;25.00;99.90
50969;DHT22;36982;51.474;7.228;2023-06-19T10:07:23;25.10;99.90
50969;DHT22;36982;51.474;7.228;2023-06-19T10:10:07;25.10;99.90
50969;DHT22;36982;51.474;7.228;2023-06-19T10:12:41;25.00;99.90
50969;DHT22;36982;51.474;7.228;2023-06-19T10:15:20;25.10;99.90
50969;DHT22;36982;51.474;7.228;2023-06-19T10:17:50;25.20;99.90
50969;DHT22;36982;51.474;7.228;2023-06-19T10:20:35;25.50;99.90
50969;DHT22;36982;51.474;7.228;2023-06-19T10:23:16;25.20;99.90
50969;DHT22;36982;51.474;7.228;2023-06-19T10:25:48;25.40;99.90
50969;DHT22;36982;51.474;7.228;2023-06-19T10:28:28;25.50;99.90
50969;DHT22;36982;51.474;7.228;2023-06-19T10:31:00;25.70;99.90
50969;DHT22;36982;51.474;7.228;2023-06-19T10:33:31;25.70;99.90
50969;DHT22;36982;51.474;7.228;2023-06-19T10:36:01;25.80;99.90
50969;DHT22;36982;51.474;7.228;2023-06-19T10:38:28;26.10;99.90
50969;DHT22;36982;51.474;7.228;2023-06-19T10:40:53;26.40;99.90
50969;DHT22;36982;51.474;7.228;2023-06-19T10:43:23;26.40;92.80
50969;DHT22;36982;51.474;7.228;2023-06-19T10:45:57;26.30;86.40
50969;DHT22;36982;51.474;7.228;2023-06-19T10:48:24;26.30;61.60
50969;DHT22;36982;51.474;7.228;2023-06-19T10:50:50;26.20;48.20
50969;DHT22;36982;51.474;7.228;2023-06-19T10:53:26;26.00;51.10
50969;DHT22;36982;51.474;7.228;2023-06-19T10:56:02;26.00;45.80
50969;DHT22;36982;51.474;7.228;2023-06-19T10:58:28;26.00;50.70
50969;DHT22;36982;51.474;7.228;2023-06-19T11:00:54;26.10;40.10
50969;DHT22;36982;51.474;7.228;2023-06-19T11:03:20;25.90;38.40
50969;DHT22;36982;51.474;7.228;2023-06-19T11:05:47;25.80;20.10
50969;DHT22;36982;51.474;7.228;2023-06-19T11:08:21;25.90;11.30
50969;DHT22;36982;51.474;7.228;2023-06-19T11:10:47;25.80;1.20
50969;DHT22;36982;51.474;7.228;2023-06-19T11:13:15;25.90;1.00
50969;DHT22;36982;51.474;7.228;2023-06-19T11:15:41;26.10;1.00
50969;DHT22;36982;51.474;7.228;2023-06-19T11:18:06;26.20;1.00
50969;DHT22;36982;51.474;7.228;2023-06-19T11:20:43;26.20;1.00
50969;DHT22;36982;51.474;7.228;2023-06-19T11:23:09;26.20;1.00
50969;DHT22;36982;51.474;7.228;2023-06-19T11:25:39;26.20;1.00
50969;DHT22;36982;51.474;7.228;2023-06-19T11:28:13;26.00;1.00
50969;DHT22;36982;51.474;7.228;2023-06-19T11:30:39;26.10;1.00
50969;DHT22;36982;51.474;7.228;2023-06-19T11:33:18;26.10;1.00
50969;DHT22;36982;51.474;7.228;2023-06-19T11:35:50;26.20;1.00
50969;DHT22;36982;51.474;7.228;2023-06-19T11:38:24;26.50;1.00
50969;DHT22;36982;51.474;7.228;2023-06-19T11:40:50;26.80;1.00
50969;DHT22;36982;51.474;7.228;2023-06-19T11:43:29;27.10;1.00
50969;DHT22;36982;51.474;7.228;2023-06-19T11:46:06;27.40;1.00
50969;DHT22;36982;51.474;7.228;2023-06-19T11:48:31;27.20;1.00
50969;DHT22;36982;51.474;7.228;2023-06-19T11:50:57;26.90;1.00
50969;DHT22;36982;51.474;7.228;2023-06-19T11:53:24;27.10;1.00
50969;DHT22;36982;51.474;7.228;2023-06-19T11:55:50;27.10;1.00
50969;DHT22;36982;51.474;7.228;2023-06-19T11:58:16;27.30;1.00
50969;DHT22;36982;51.474;7.228;2023-06-19T12:00:43;27.30;1.00
50969;DHT22;36982;51.474;7.228;2023-06-19T12:03:09;27.20;1.00
50969;DHT22;36982;51.474;7.228;2023-06-19T12:05:35;27.20;1.00
50969;DHT22;36982;51.474;7.228;2023-06-19T12:08:01;27.00;1.00
50969;DHT22;36982;51.474;7.228;2023-06-19T12:10:28;26.90;1.00
50969;DHT22;36982;51.474;7.228;2023-06-19T12:12:54;26.50;1.00
50969;DHT22;36982;51.474;7.228;2023-06-19T12:15:19;26.40;1.00
50969;DHT22;36982;51.474;7.228;2023-06-19T12:17:46;26.40;1.00
50969;DHT22;36982;51.474;7.228;2023-06-19T12:20:12;26.50;1.00
50969;DHT22;36982;51.474;7.228;2023-06-19T12:22:39;26.60;1.00
50969;DHT22;36982;51.474;7.228;2023-06-19T12:25:05;26.60;1.00
50969;DHT22;36982;51.474;7.228;2023-06-19T12:27:30;26.60;1.00
50969;DHT22;36982;51.474;7.228;2023-06-19T12:29:56;26.70;1.00
50969;DHT22;36982;51.474;7.228;2023-06-19T12:32:22;26.80;1.00
50969;DHT22;36982;51.474;7.228;2023-06-19T12:34:49;26.80;1.00
50969;DHT22;36982;51.474;7.228;2023-06-19T12:37:20;26.90;1.00
50969;DHT22;36982;51.474;7.228;2023-06-19T12:39:46;27.10;99.90
50969;DHT22;36982;51.474;7.228;2023-06-19T12:42:12;27.00;99.90
50969;DHT22;36982;51.474;7.228;2023-06-19T12:44:39;26.80;1.00
50969;DHT22;36982;51.474;7.228;2023-06-19T12:47:05;26.80;99.90
50969;DHT22;36982;51.474;7.228;2023-06-19T12:49:31;27.10;99.90
50969;DHT22;36982;51.474;7.228;2023-06-19T12:51:57;27.30;99.90
50969;DHT22;36982;51.474;7.228;2023-06-19T12:54:23;27.00;99.90
50969;DHT22;36982;51.474;7.228;2023-06-19T12:56:49;27.00;99.90
50969;DHT22;36982;51.474;7.228;2023-06-19T12:59:15;27.10;99.90
50969;DHT22;36982;51.474;7.228;2023-06-19T13:01:41;27.10;99.90
50969;DHT22;36982;51.474;7.228;2023-06-19T13:04:07;27.40;99.90
50969;DHT22;36982;51.474;7.228;2023-06-19T13:06:33;27.50;99.90
50969;DHT22;36982;51.474;7.228;2023-06-19T13:08:58;27.60;99.90
50969;DHT22;36982;51.474;7.228;2023-06-19T13:11:24;27.50;99.90
50969;DHT22;36982;51.474;7.228;2023-06-19T13:13:49;27.80;99.90
50969;DHT22;36982;51.474;7.228;2023-06-19T13:16:15;27.60;99.90
50969;DHT22;36982;51.474;7.228;2023-06-19T13:18:44;27.70;99.90
50969;DHT22;36982;51.474;7.228;2023-06-19T13:21:11;27.80;99.90
50969;DHT22;36982;51.474;7.228;2023-06-19T13:23:37;27.90;99.90
50969;DHT22;36982;51.474;7.228;2023-06-19T13:26:07;28.10;99.90
50969;DHT22;36982;51.474;7.228;2023-06-19T13:28:33;28.30;99.90
50969;DHT22;36982;51.474;7.228;2023-06-19T13:30:58;28.10;99.90
50969;DHT22;36982;51.474;7.228;2023-06-19T13:33:25;27.90;99.90
50969;DHT22;36982;51.474;7.228;2023-06-19T13:35:51;27.70;99.90
50969;DHT22;36982;51.474;7.228;2023-06-19T13:38:17;27.70;99.90
50969;DHT22;36982;51.474;7.228;2023-06-19T13:40:43;27.50;99.90
50969;DHT22;36982;51.474;7.228;2023-06-19T13:43:08;27.40;99.90
50969;DHT22;36982;51.474;7.228;2023-06-19T13:45:34;27.40;99.90
50969;DHT22;36982;51.474;7.228;2023-06-19T13:48:00;27.20;99.90
50969;DHT22;36982;51.474;7.228;2023-06-19T13:50:26;27.10;99.90
50969;DHT22;36982;51.474;7.228;2023-06-19T13:52:52;27.00;99.90
50969;DHT22;36982;51.474;7.228;2023-06-19T13:55:18;26.90;99.90
50969;DHT22;36982;51.474;7.228;2023-06-19T13:57:44;26.70;99.90
50969;DHT22;36982;51.474;7.228;2023-06-19T14:00:11;26.80;99.90
50969;DHT22;36982;51.474;7.228;2023-06-19T14:02:37;26.80;99.90
50969;DHT22;36982;51.474;7.228;2023-06-19T14:05:05;26.80;99.90
50969;DHT22;36982;51.474;7.228;2023-06-19T14:07:32;26.80;99.90
50969;DHT22;36982;51.474;7.228;2023-06-19T14:09:58;26.80;99.90
50969;DHT22;36982;51.474;7.228;2023-06-19T14:12:23;26.90;99.90
50969;DHT22;36982;51.474;7.228;2023-06-19T14:14:49;26.90;99.90
50969;DHT22;36982;51.474;7.228;2023-06-19T14:17:14;27.00;99.90
50969;DHT22;36982;51.474;7.228;2023-06-19T14:19:40;27.10;99.90
50969;DHT22;36982;51.474;7.228;2023-06-19T14:22:06;27.20;99.90
50969;DHT22;36982;51.474;7.228;2023-06-19T14:24:31;27.20;99.90
50969;DHT22;36982;51.474;7.228;2023-06-19T14:26:57;27.40;99.90
50969;DHT22;36982;51.474;7.228;2023-06-19T14:29:23;27.50;99.90
50969;DHT22;36982;51.474;7.228;2023-06-19T14:31:51;27.60;99.90
50969;DHT22;36982;51.474;7.228;2023-06-19T14:34:17;27.70;99.90
50969;DHT22;36982;51.474;7.228;2023-06-19T14:36:42;27.70;99.90
50969;DHT22;36982;51.474;7.228;2023-06-19T14:39:08;27.50;99.90
50969;DHT22;36982;51.474;7.228;2023-06-19T14:41:34;27.40;99.90
50969;DHT22;36982;51.474;7.228;2023-06-19T14:43:59;27.60;99.90
50969;DHT22;36982;51.474;7.228;2023-06-19T14:46:25;27.60;99.90
50969;DHT22;36982;51.474;7.228;2023-06-19T14:48:51;27.70;99.90
50969;DHT22;36982;51.474;7.228;2023-06-19T14:51:16;27.70;99.90
50969;DHT22;36982;51.474;7.228;2023-06-19T14:53:42;27.60;99.90
50969;DHT22;36982;51.474;7.228;2023-06-19T14:56:07;27.60;99.90
50969;DHT22;36982;51.474;7.228;2023-06-19T14:58:33;27.60;99.90
50969;DHT22;36982;51.474;7.228;2023-06-19T15:00:58;27.60;99.90
50969;DHT22;36982;51.474;7.228;2023-06-19T15:03:24;27.70;99.90
50969;DHT22;36982;51.474;7.228;2023-06-19T15:05:50;27.80;99.90
50969;DHT22;36982;51.474;7.228;2023-06-19T15:08:15;27.90;99.90
50969;DHT22;36982;51.474;7.228;2023-06-19T15:10:47;27.80;99.90
50969;DHT22;36982;51.474;7.228;2023-06-19T15:13:12;27.80;99.90
50969;DHT22;36982;51.474;7.228;2023-06-19T15:15:38;27.70;99.90
50969;DHT22;36982;51.474;7.228;2023-06-19T15:18:03;27.80;99.90
50969;DHT22;36982;51.474;7.228;2023-06-19T15:20:29;27.90;99.90
50969;DHT22;36982;51.474;7.228;2023-06-19T15:22:55;27.80;99.90
50969;DHT22;36982;51.474;7.228;2023-06-19T15:25:20;27.70;99.90
50969;DHT22;36982;51.474;7.228;2023-06-19T15:27:46;27.70;99.90
50969;DHT22;36982;51.474;7.228;2023-06-19T15:30:11;27.60;99.90
50969;DHT22;36982;51.474;7.228;2023-06-19T15:32:37;27.50;99.90